Decoded Metar for SARP (POSADAS in ARGENTINA) (IATA:PSS) | Meteo·Mobile Aviation Weather
aviador You're here:

SARP Decoded Metar

POSADAS in ARGENTINA
Report Time2018-09-19 17:00:00
UTC Time2018-09-19 17:06:50
Flight Rules vfr VFR
Wind090° at 03 kt
W.Decomp.*RWY 19: 0.1 kt HW 3 kt LCW
W.Rank090° ranks 2
Current wind is below 090° avg. (4.8)
Visibility9999 m
Phenomena:N/A
Clouds:Few CB 045 Hf
Broken 100 Hf
Broken 200 Hf
Expected CloudBase > 1,600 ft AGL from Temp-Dew spread
Ceiling10,000 ft
Temp22°C (ISA +8)
Dew Point18°C (78% RH)
QNH1010 hPa
Density Alt1,696 ft
Elevation410 ft
Report Wrong Elevation
Raw Report
METAR SARP 191700Z 09003KT 9999 FEW045CB BKN100 BKN200 22/18 Q1010=

Extra information for SARP:More info

Metar Taf Metar & Taf Last 4 Metars F.Rules Stats Wind Profile Meteogram Temp Stats Airport Information Weather charts Add Link Nearby VenuesMetar ALERT Operation Metar Decoded Social comments